This is the latest recevied weather packets stored in our database for station/object AD4CG. If no packets are shown the sender has not sent any weather packets the latest 10 day(s).
| Time | Temp. | Humidity | Pressure | Rain* | Wind** | Luminosity | Snow |
|---|---|---|---|---|---|---|---|
| 1777608182 | 17.22° C | 75% | 1013.2 hPa | 0 mm | - | - | - |
| 1777606303 | 15° C | 100% | 1012.9 hPa | 0 mm | - | - | - |
| 1777603801 | 14.44° C | 100% | 1012.2 hPa | 0 mm | - | - | - |
| 1777603173 | 14.44° C | 100% | 1012.2 hPa | 0 mm | - | - | - |
| 1777600670 | 15° C | 100% | 1011.9 hPa | 0 mm | - | - | - |
| 1777598792 | 16.11° C | 100% | 1011.2 hPa | 0 mm | - | - | - |
| 1777595656 | 17.22° C | 100% | 1010.8 hPa | 0 mm | - | - | - |
| 1777587732 | 21.67° C | 65% | 1009.5 hPa | 0 mm | - | - | - |
| 1777584898 | 22.22° C | 57% | 1009.1 hPa | 0 mm | - | - | - |
| 1777582694 | 21.11° C | 63% | 1009.8 hPa | 0 mm | - | - | - |
| 1777580493 | 21.11° C | 65% | 1010.2 hPa | 0 mm | - | - | - |
| 1777580167 | 21.11° C | 64% | 1009.8 hPa | 0 mm | - | - | - |
| 1777579222 | 22.22° C | 63% | 1009.8 hPa | 0 mm | - | - | - |
| 1777574525 | 21.11° C | 61% | 1009.8 hPa | 0 mm | - | - | - |
| 1777573582 | 21.11° C | 75% | 1009.5 hPa | 0 mm | - | - | - |
| 1777567946 | 18.33° C | 100% | 1010.8 hPa | 0 mm | - | - | - |
| 1777566692 | 17.22° C | 100% | 1010.2 hPa | 0 mm | - | - | - |
| 1777565126 | 17.22° C | 100% | 1010.8 hPa | 0 mm | - | - | - |
| 1777562308 | 17.22° C | 100% | 1010.8 hPa | 0 mm | - | - | - |
| 1777561681 | 16.67° C | 100% | 1011.2 hPa | 0 mm | - | - | - |
| 1777559491 | 16.67° C | 100% | 1011.2 hPa | 0 mm | - | - | - |
| 1777558241 | 16.67° C | 100% | 1011.5 hPa | 0 mm | - | - | - |
| 1777557925 | 16.67° C | 100% | 1011.2 hPa | 0 mm | - | - | - |
| 1777556047 | 16.67° C | 100% | 1009.8 hPa | 0 mm | - | - | - |
| 1777551677 | 16.11° C | 100% | 1010.2 hPa | 0 mm | - | - | - |
* Rain latest hour (hover to see other rain measurements)
** Current wind speed in m/s (hover to see current wind gust speed)